createdAt,value
2022-10-17T03:01:31.819Z,3.50
2022-10-17T03:04:08.445Z,3.53
2022-10-17T03:06:35.648Z,4.03
2022-10-17T03:09:02.917Z,3.70
2022-10-17T03:11:30.131Z,3.80
2022-10-17T03:13:57.254Z,3.70
2022-10-17T03:16:24.472Z,3.47
2022-10-17T03:18:51.610Z,3.60
2022-10-17T03:21:18.777Z,3.60
2022-10-17T03:23:45.913Z,3.90
2022-10-17T03:26:13.242Z,3.60
2022-10-17T03:28:40.524Z,3.80
2022-10-17T03:31:13.116Z,4.07
2022-10-17T03:33:40.211Z,3.90
2022-10-17T03:36:09.244Z,3.50
2022-10-17T03:38:36.544Z,3.40
2022-10-17T03:41:04.529Z,3.40
2022-10-17T03:43:31.760Z,3.33
2022-10-17T03:46:00.173Z,4.30
2022-10-17T03:48:28.739Z,3.90
2022-10-17T03:51:01.187Z,3.70
2022-10-17T03:53:28.800Z,4.18
2022-10-17T03:55:56.844Z,3.63
2022-10-17T03:58:24.023Z,4.33
2022-10-17T04:00:51.271Z,3.40
2022-10-17T04:03:18.383Z,5.03
2022-10-17T04:05:45.532Z,3.87
2022-10-17T04:08:12.656Z,4.13
2022-10-17T04:10:39.832Z,4.40
2022-10-17T04:13:07.038Z,3.80
2022-10-17T04:15:34.242Z,4.20
2022-10-17T04:18:01.347Z,3.97
2022-10-17T04:20:28.484Z,4.00
2022-10-17T04:22:55.576Z,3.97
2022-10-17T04:25:22.753Z,3.90
2022-10-17T04:27:49.856Z,3.80
2022-10-17T04:30:17.518Z,3.90
2022-10-17T04:32:44.701Z,4.17
2022-10-17T04:35:11.902Z,4.50
2022-10-17T04:37:39.079Z,4.15
2022-10-17T04:40:06.827Z,4.10
2022-10-17T04:42:34.011Z,4.00
2022-10-17T04:45:01.133Z,4.30
2022-10-17T04:47:28.260Z,3.90
2022-10-17T04:49:55.407Z,4.10
2022-10-17T04:52:22.620Z,4.07
2022-10-17T04:54:49.743Z,4.00
2022-10-17T04:57:17.128Z,3.83
2022-10-17T04:59:44.416Z,4.40
2022-10-17T05:02:11.971Z,4.80
2022-10-17T05:04:39.080Z,4.80
2022-10-17T05:07:06.304Z,4.17
2022-10-17T05:09:33.392Z,4.90
2022-10-17T05:12:00.505Z,5.40
2022-10-17T05:14:27.800Z,4.67
2022-10-17T05:16:54.993Z,4.90
2022-10-17T05:19:22.091Z,5.27
2022-10-17T05:21:49.212Z,7.83
2022-10-17T05:24:16.383Z,5.47
2022-10-17T05:26:43.552Z,6.20
2022-10-17T05:29:10.949Z,7.00
2022-10-17T05:31:38.153Z,6.63
2022-10-17T05:34:07.084Z,6.87
2022-10-17T05:36:36.420Z,6.00
2022-10-17T05:39:06.655Z,5.82
2022-10-17T05:41:33.771Z,5.73
2022-10-17T05:44:04.626Z,5.23
2022-10-17T05:46:32.819Z,5.23
2022-10-17T05:48:59.965Z,5.10
2022-10-17T05:51:27.138Z,5.20
2022-10-17T05:53:54.364Z,5.20
2022-10-17T05:56:21.476Z,5.63
2022-10-17T05:58:50.962Z,5.53
2022-10-17T06:01:20.247Z,5.40
2022-10-17T06:03:47.437Z,5.33
2022-10-17T06:06:15.592Z,5.03
2022-10-17T06:08:43.233Z,4.80
2022-10-17T06:11:11.359Z,5.45
2022-10-17T06:13:39.462Z,5.32
2022-10-17T06:16:07.062Z,5.40
2022-10-17T06:18:34.204Z,5.57
2022-10-17T06:21:06.581Z,4.88
2022-10-17T06:23:34.159Z,5.57
2022-10-17T06:26:02.659Z,5.40
2022-10-17T06:28:30.229Z,4.63
2022-10-17T06:30:57.641Z,5.65
2022-10-17T06:33:24.899Z,4.97
2022-10-17T06:35:53.303Z,5.07
2022-10-17T06:38:21.056Z,5.73
2022-10-17T06:40:48.212Z,5.00
2022-10-17T06:43:15.372Z,4.43
2022-10-17T06:45:42.588Z,4.40
2022-10-17T06:48:09.868Z,4.45
2022-10-17T06:50:36.961Z,4.60
2022-10-17T06:53:04.095Z,4.80
2022-10-17T06:55:32.551Z,4.00
2022-10-17T06:57:59.696Z,4.45
2022-10-17T07:00:26.907Z,4.35
2022-10-17T07:02:54.054Z,3.75
2022-10-17T07:05:21.200Z,4.18
2022-10-17T07:07:50.967Z,3.80
2022-10-17T07:10:19.181Z,3.80
2022-10-17T07:12:46.392Z,3.90
2022-10-17T07:15:13.560Z,3.80
2022-10-17T07:17:40.650Z,3.90
2022-10-17T07:20:08.479Z,3.92
2022-10-17T07:22:35.599Z,4.00
2022-10-17T07:25:02.707Z,3.80
2022-10-17T07:27:30.040Z,4.22
2022-10-17T07:29:57.374Z,3.92
2022-10-17T07:32:24.520Z,3.70
2022-10-17T07:34:51.628Z,3.80
2022-10-17T07:37:18.809Z,3.90
2022-10-17T07:39:45.957Z,4.03
2022-10-17T07:42:14.469Z,3.70
2022-10-17T07:44:41.697Z,4.07
2022-10-17T07:47:08.858Z,3.90
2022-10-17T07:49:36.016Z,3.92
2022-10-17T07:52:03.146Z,4.20
2022-10-17T07:54:30.286Z,4.47
2022-10-17T07:56:57.430Z,4.30
2022-10-17T07:59:24.629Z,4.20
2022-10-17T08:01:54.920Z,4.00
2022-10-17T08:04:22.052Z,4.30
2022-10-17T08:06:53.447Z,4.28
2022-10-17T08:09:23.608Z,4.38
2022-10-17T08:11:50.772Z,4.10
2022-10-17T08:14:17.937Z,3.80
2022-10-17T08:16:45.124Z,3.78
2022-10-17T08:19:13.016Z,3.22
2022-10-17T08:21:41.321Z,3.60
2022-10-17T08:24:08.869Z,3.70
2022-10-17T08:26:39.264Z,3.70
2022-10-17T08:29:14.595Z,3.28
2022-10-17T08:31:45.280Z,3.47
2022-10-17T08:34:15.831Z,3.30
2022-10-17T08:36:42.931Z,3.50
2022-10-17T08:39:10.096Z,3.17
2022-10-17T08:41:47.105Z,3.15
2022-10-17T08:44:18.329Z,3.25
2022-10-17T08:46:49.039Z,2.97
2022-10-17T08:49:25.957Z,2.80
2022-10-17T08:52:04.527Z,3.03
2022-10-17T08:54:40.491Z,2.80
2022-10-17T08:57:13.298Z,3.10
2022-10-17T08:59:40.704Z,2.97
2022-10-17T09:02:16.756Z,3.50
2022-10-17T09:05:25.528Z,3.33
2022-10-17T09:08:19.384Z,3.20
2022-10-17T09:11:10.064Z,3.00
2022-10-17T09:13:59.001Z,3.30
2022-10-17T09:17:07.666Z,3.95
2022-10-17T09:19:38.846Z,3.75
2022-10-17T09:22:22.828Z,3.80
2022-10-17T09:24:59.184Z,4.78
2022-10-17T09:27:48.614Z,3.50
2022-10-17T09:30:45.277Z,4.40
2022-10-17T09:33:35.684Z,4.55
2022-10-17T09:36:17.407Z,4.05
2022-10-17T09:38:59.728Z,4.35
2022-10-17T09:41:49.996Z,3.80
2022-10-17T09:44:17.216Z,3.55
2022-10-17T09:47:23.817Z,3.65
2022-10-17T09:49:51.745Z,3.78
2022-10-17T09:52:22.674Z,3.50
2022-10-17T09:54:53.595Z,4.10
2022-10-17T09:57:21.988Z,3.95
2022-10-17T10:00:05.300Z,4.05
2022-10-17T10:02:36.380Z,3.50
2022-10-17T10:05:19.947Z,3.33
2022-10-17T10:08:03.808Z,3.00
2022-10-17T10:10:32.116Z,3.35
2022-10-17T10:13:16.162Z,3.60
2022-10-17T10:15:45.817Z,3.17
2022-10-17T10:18:24.867Z,3.67
2022-10-17T10:21:09.964Z,3.03
2022-10-17T10:23:41.856Z,4.28
2022-10-17T10:26:12.462Z,3.00
2022-10-17T10:28:40.170Z,3.17
2022-10-17T10:31:09.390Z,3.20
2022-10-17T10:33:43.016Z,5.22
2022-10-17T10:36:12.157Z,3.20
2022-10-17T10:38:40.968Z,3.08
2022-10-17T10:41:10.299Z,3.03
2022-10-17T10:43:45.241Z,4.38
2022-10-17T10:46:28.015Z,2.90
2022-10-17T10:49:00.153Z,3.00
2022-10-17T10:51:41.420Z,3.10
2022-10-17T10:54:33.347Z,2.90
2022-10-17T10:57:04.468Z,3.03
2022-10-17T11:00:04.912Z,3.45
2022-10-17T11:02:54.320Z,3.10
2022-10-17T11:05:53.888Z,3.35
2022-10-17T11:08:24.124Z,3.28
2022-10-17T11:11:19.765Z,3.20
2022-10-17T11:14:08.074Z,3.60
2022-10-17T11:16:44.604Z,2.80
2022-10-17T11:19:45.260Z,2.00
2022-10-17T11:22:31.236Z,3.35
2022-10-17T11:25:12.557Z,3.50
2022-10-17T11:27:39.659Z,3.00
2022-10-17T11:30:12.405Z,3.15
2022-10-17T11:32:46.719Z,3.10
2022-10-17T11:35:27.703Z,2.80
2022-10-17T11:38:21.825Z,3.10
2022-10-17T11:40:52.174Z,2.90
2022-10-17T11:43:54.286Z,3.65
2022-10-17T11:46:26.802Z,2.53
2022-10-17T11:49:16.119Z,3.38
2022-10-17T11:52:00.463Z,2.92
2022-10-17T11:54:41.708Z,3.25
2022-10-17T11:57:29.581Z,2.30
2022-10-17T12:00:02.359Z,2.53
2022-10-17T12:02:50.948Z,3.33
2022-10-17T12:05:45.438Z,2.75
2022-10-17T12:08:39.209Z,3.13
2022-10-17T12:11:38.386Z,3.33
2022-10-17T12:14:34.441Z,3.10
2022-10-17T12:17:03.166Z,3.20
2022-10-17T12:19:33.837Z,3.10
2022-10-17T12:22:05.841Z,3.40
2022-10-17T12:24:41.240Z,3.60
2022-10-17T12:27:30.091Z,3.08
2022-10-17T12:30:03.371Z,3.15
2022-10-17T12:32:46.977Z,3.13
2022-10-17T12:35:23.823Z,2.78
2022-10-17T12:37:50.945Z,3.22
2022-10-17T12:40:36.228Z,2.88
2022-10-17T12:43:15.786Z,3.30
2022-10-17T12:45:50.198Z,3.28
2022-10-17T12:48:42.081Z,3.45
2022-10-17T12:51:35.390Z,3.40
2022-10-17T12:54:13.458Z,3.53
2022-10-17T12:56:42.260Z,2.60
2022-10-17T12:59:29.830Z,3.40
2022-10-17T13:02:00.116Z,3.72
2022-10-17T13:04:29.717Z,3.47
2022-10-17T13:06:59.003Z,2.90
2022-10-17T13:09:30.022Z,3.42
2022-10-17T13:12:00.406Z,2.60
2022-10-17T13:14:28.407Z,3.00
2022-10-17T13:17:03.975Z,3.28
2022-10-17T13:19:40.467Z,2.95
2022-10-17T13:22:22.648Z,3.20
2022-10-17T13:24:51.470Z,2.80
2022-10-17T13:27:23.096Z,2.67
2022-10-17T13:29:50.315Z,3.60
2022-10-17T13:32:17.853Z,3.83
2022-10-17T13:34:44.965Z,3.53
2022-10-17T13:37:15.514Z,4.00
2022-10-17T13:39:55.168Z,3.38
2022-10-17T13:42:27.485Z,2.90
2022-10-17T13:44:56.505Z,3.75
2022-10-17T13:47:26.418Z,3.38
2022-10-17T13:49:55.678Z,3.13
2022-10-17T13:52:26.888Z,3.08
2022-10-17T13:54:55.442Z,3.40
2022-10-17T13:57:30.876Z,2.35
2022-10-17T13:59:59.614Z,2.78
2022-10-17T14:02:30.290Z,2.80
2022-10-17T14:05:23.616Z,2.92
2022-10-17T14:08:10.524Z,2.90
2022-10-17T14:10:41.013Z,2.90
2022-10-17T14:13:18.805Z,2.72
2022-10-17T14:15:46.603Z,2.63
2022-10-17T14:18:29.083Z,3.10
2022-10-17T14:23:46.346Z,3.47
2022-10-17T14:26:15.464Z,2.10
2022-10-17T14:28:45.451Z,2.80
2022-10-17T14:31:17.145Z,2.88
2022-10-17T14:33:50.491Z,5.22
2022-10-17T14:36:19.837Z,3.47
2022-10-17T14:38:55.889Z,3.35
2022-10-17T14:41:42.457Z,3.25
2022-10-17T14:44:19.262Z,3.38
2022-10-17T14:46:50.993Z,3.13
2022-10-17T14:49:26.011Z,3.30
2022-10-17T14:52:18.624Z,3.30
2022-10-17T14:54:48.089Z,3.53
2022-10-17T14:57:23.627Z,3.75
2022-10-17T14:59:55.411Z,3.33
2022-10-17T15:02:24.712Z,3.33
2022-10-17T15:04:52.183Z,3.53
2022-10-17T15:07:21.264Z,3.47
2022-10-17T15:09:50.278Z,3.55
2022-10-17T15:12:19.589Z,3.55
2022-10-17T15:14:50.622Z,7.20
2022-10-17T15:17:27.676Z,6.35
2022-10-17T15:19:55.553Z,3.50
2022-10-17T15:22:23.388Z,2.47
2022-10-17T15:24:50.719Z,2.42
2022-10-17T15:27:23.321Z,2.53
2022-10-17T15:29:51.638Z,2.40
2022-10-17T15:32:19.178Z,2.58
2022-10-17T15:34:46.415Z,2.80
2022-10-17T15:37:22.345Z,2.90
2022-10-17T15:39:54.584Z,3.15
2022-10-17T15:42:26.327Z,2.80
2022-10-17T15:44:53.857Z,2.92
2022-10-17T15:47:28.478Z,3.13
2022-10-17T15:49:56.027Z,2.92
2022-10-17T15:52:23.708Z,3.15
2022-10-17T15:54:51.226Z,3.13
2022-10-17T15:57:21.424Z,3.28
2022-10-17T15:59:50.441Z,3.25
2022-10-17T16:02:20.203Z,3.50
2022-10-17T16:04:49.120Z,3.38
2022-10-17T16:07:16.958Z,3.63
2022-10-17T16:09:44.193Z,3.10
2022-10-17T16:12:16.400Z,3.30
2022-10-17T16:14:43.562Z,3.55
2022-10-17T16:17:17.652Z,3.33
2022-10-17T16:19:45.241Z,3.30
2022-10-17T16:22:26.314Z,3.30
2022-10-17T16:25:07.216Z,3.50
2022-10-17T16:27:34.392Z,3.58
2022-10-17T16:30:01.787Z,4.20
2022-10-17T16:32:29.176Z,3.10
2022-10-17T16:34:56.520Z,3.40
2022-10-17T16:37:23.721Z,4.90
2022-10-17T16:39:52.497Z,4.00
2022-10-17T16:42:23.326Z,3.42
2022-10-17T16:44:50.801Z,3.42
2022-10-17T16:47:19.057Z,3.67
2022-10-17T16:49:46.224Z,3.45
2022-10-17T16:52:13.861Z,4.03
2022-10-17T16:54:41.142Z,3.58
2022-10-17T16:57:08.402Z,3.85
2022-10-17T16:59:35.532Z,4.13
2022-10-17T17:02:02.715Z,3.80
2022-10-17T17:04:29.997Z,3.15
2022-10-17T17:06:57.292Z,3.92
2022-10-17T17:09:24.443Z,4.00
2022-10-17T17:11:51.895Z,3.50
2022-10-17T17:14:19.037Z,3.40
2022-10-17T17:16:46.196Z,3.38
2022-10-17T17:19:16.846Z,3.70
2022-10-17T17:21:51.014Z,3.60
2022-10-17T17:24:22.846Z,4.13
2022-10-17T17:26:54.687Z,4.82
2022-10-17T17:29:22.852Z,6.13
2022-10-17T17:31:50.710Z,6.50
2022-10-17T17:34:18.510Z,5.75
2022-10-17T17:36:45.885Z,5.95
2022-10-17T17:39:14.578Z,5.50
2022-10-17T17:41:43.207Z,5.00
2022-10-17T17:44:15.591Z,3.80
2022-10-17T17:46:44.651Z,3.80
2022-10-17T17:49:12.264Z,3.63
2022-10-17T17:51:41.462Z,4.13
2022-10-17T17:54:11.510Z,4.40
2022-10-17T17:56:39.292Z,4.47
2022-10-17T17:59:06.736Z,4.70
2022-10-17T18:01:39.033Z,4.53
2022-10-17T18:04:11.091Z,5.00
2022-10-17T18:06:41.339Z,4.63
2022-10-17T18:09:09.216Z,4.32
2022-10-17T18:11:37.453Z,4.35
2022-10-17T18:14:07.590Z,4.43
2022-10-17T18:16:37.111Z,4.70
2022-10-17T18:19:07.106Z,5.10
2022-10-17T18:21:35.833Z,4.78
2022-10-17T18:24:04.770Z,4.63
2022-10-17T18:26:32.553Z,5.05
2022-10-17T18:28:59.768Z,6.40
2022-10-17T18:31:35.321Z,5.70
2022-10-17T18:34:03.740Z,5.55
2022-10-17T18:36:31.862Z,5.57
2022-10-17T18:39:00.480Z,5.55
2022-10-17T18:41:28.355Z,6.00
2022-10-17T18:43:56.633Z,6.22
2022-10-17T18:46:30.100Z,6.43
2022-10-17T18:48:57.326Z,7.07
2022-10-17T18:51:25.815Z,5.80
2022-10-17T18:53:54.853Z,6.00
2022-10-17T18:56:22.831Z,6.85
2022-10-17T18:58:50.300Z,7.70
2022-10-17T19:01:22.977Z,6.95
2022-10-17T19:03:51.903Z,7.18
2022-10-17T19:06:22.061Z,7.85
2022-10-17T19:08:49.279Z,6.95
2022-10-17T19:11:25.340Z,7.45
2022-10-17T19:13:53.073Z,6.88
2022-10-17T19:16:29.718Z,7.20
2022-10-17T19:18:59.663Z,7.10
2022-10-17T19:21:27.250Z,7.70
2022-10-17T19:23:56.835Z,7.35
2022-10-17T19:26:25.860Z,7.15
2022-10-17T19:28:53.815Z,8.60
2022-10-17T19:31:26.835Z,8.43
2022-10-17T19:33:56.152Z,8.82
2022-10-17T19:36:28.892Z,7.72
2022-10-17T19:39:00.419Z,6.68
2022-10-17T19:41:28.210Z,7.45
2022-10-17T19:43:55.487Z,5.80
2022-10-17T19:46:26.422Z,5.38
2022-10-17T19:48:53.654Z,5.50
2022-10-17T19:51:24.507Z,5.50
2022-10-17T19:53:52.722Z,6.25
2022-10-17T19:56:21.297Z,5.63
2022-10-17T19:58:49.866Z,6.03
2022-10-17T20:01:19.828Z,6.65
2022-10-17T20:03:47.319Z,6.10
2022-10-17T20:06:15.413Z,5.88
2022-10-17T20:08:42.898Z,5.82
2022-10-17T20:11:14.770Z,5.70
2022-10-17T20:13:42.180Z,6.35
2022-10-17T20:16:13.165Z,5.95
2022-10-17T20:18:40.910Z,5.85
2022-10-17T20:21:13.947Z,6.30
2022-10-17T20:23:41.946Z,6.00
2022-10-17T20:26:26.088Z,5.80
2022-10-17T20:29:02.872Z,5.65
2022-10-17T20:31:30.389Z,6.03
2022-10-17T20:33:58.919Z,6.13
2022-10-17T20:36:26.187Z,6.03
2022-10-17T20:38:57.798Z,5.70
2022-10-17T20:41:26.411Z,5.57
2022-10-17T20:43:55.011Z,6.10
2022-10-17T20:46:35.506Z,6.32
2022-10-17T20:49:04.917Z,6.50
2022-10-17T20:51:32.105Z,6.38
2022-10-17T20:53:59.552Z,6.18
2022-10-17T20:56:29.366Z,5.88
2022-10-17T20:59:00.068Z,5.80
